sensor_id;sensor_type;location;lat;lon;timestamp;temperature;humidity
4840;DHT22;2434;48.486;7.964;2022-11-23T00:01:14;8.40;73.40
4840;DHT22;2434;48.486;7.964;2022-11-23T00:03:45;8.40;73.30
4840;DHT22;2434;48.486;7.964;2022-11-23T00:06:15;8.30;73.20
4840;DHT22;2434;48.486;7.964;2022-11-23T00:08:43;8.30;73.10
4840;DHT22;2434;48.486;7.964;2022-11-23T00:11:12;8.30;73.70
4840;DHT22;2434;48.486;7.964;2022-11-23T00:13:42;8.30;73.50
4840;DHT22;2434;48.486;7.964;2022-11-23T00:16:12;8.30;73.70
4840;DHT22;2434;48.486;7.964;2022-11-23T00:18:41;8.20;72.70
4840;DHT22;2434;48.486;7.964;2022-11-23T00:21:13;8.10;73.40
4840;DHT22;2434;48.486;7.964;2022-11-23T00:23:42;8.10;73.20
4840;DHT22;2434;48.486;7.964;2022-11-23T00:26:12;8.00;73.70
4840;DHT22;2434;48.486;7.964;2022-11-23T00:28:41;8.00;72.60
4840;DHT22;2434;48.486;7.964;2022-11-23T00:31:10;8.00;72.60
4840;DHT22;2434;48.486;7.964;2022-11-23T00:33:39;8.00;72.40
4840;DHT22;2434;48.486;7.964;2022-11-23T00:36:12;8.00;73.20
4840;DHT22;2434;48.486;7.964;2022-11-23T00:38:41;7.90;72.30
4840;DHT22;2434;48.486;7.964;2022-11-23T00:41:12;7.90;72.80
4840;DHT22;2434;48.486;7.964;2022-11-23T00:43:41;7.90;72.60
4840;DHT22;2434;48.486;7.964;2022-11-23T00:46:12;7.90;72.80
4840;DHT22;2434;48.486;7.964;2022-11-23T00:48:41;7.90;72.40
4840;DHT22;2434;48.486;7.964;2022-11-23T00:51:12;7.90;72.20
4840;DHT22;2434;48.486;7.964;2022-11-23T00:53:41;7.90;72.10
4840;DHT22;2434;48.486;7.964;2022-11-23T00:56:10;7.80;71.70
4840;DHT22;2434;48.486;7.964;2022-11-23T00:58:40;7.80;72.70
4840;DHT22;2434;48.486;7.964;2022-11-23T01:01:10;7.70;73.30
4840;DHT22;2434;48.486;7.964;2022-11-23T01:03:41;7.70;72.20
4840;DHT22;2434;48.486;7.964;2022-11-23T01:06:12;7.70;72.80
4840;DHT22;2434;48.486;7.964;2022-11-23T01:08:40;7.70;72.80
4840;DHT22;2434;48.486;7.964;2022-11-23T01:11:10;7.70;72.40
4840;DHT22;2434;48.486;7.964;2022-11-23T01:13:40;7.70;72.30
4840;DHT22;2434;48.486;7.964;2022-11-23T01:16:13;7.70;72.10
4840;DHT22;2434;48.486;7.964;2022-11-23T01:18:51;7.70;72.20
4840;DHT22;2434;48.486;7.964;2022-11-23T01:21:24;7.70;72.20
4840;DHT22;2434;48.486;7.964;2022-11-23T01:23:53;7.70;72.40
4840;DHT22;2434;48.486;7.964;2022-11-23T01:26:22;7.70;72.40
4840;DHT22;2434;48.486;7.964;2022-11-23T01:28:50;7.80;72.50
4840;DHT22;2434;48.486;7.964;2022-11-23T01:31:23;7.80;72.00
4840;DHT22;2434;48.486;7.964;2022-11-23T01:33:53;7.80;71.80
4840;DHT22;2434;48.486;7.964;2022-11-23T01:36:26;7.80;71.70
4840;DHT22;2434;48.486;7.964;2022-11-23T01:38:55;7.90;71.60
4840;DHT22;2434;48.486;7.964;2022-11-23T01:41:25;7.80;71.80
4840;DHT22;2434;48.486;7.964;2022-11-23T01:43:54;7.80;72.00
4840;DHT22;2434;48.486;7.964;2022-11-23T01:46:23;7.90;72.00
4840;DHT22;2434;48.486;7.964;2022-11-23T01:48:54;7.90;71.70
4840;DHT22;2434;48.486;7.964;2022-11-23T01:51:27;7.90;71.60
4840;DHT22;2434;48.486;7.964;2022-11-23T01:54:02;7.90;71.80
4840;DHT22;2434;48.486;7.964;2022-11-23T01:56:35;7.90;71.80
4840;DHT22;2434;48.486;7.964;2022-11-23T01:59:08;8.00;71.40
4840;DHT22;2434;48.486;7.964;2022-11-23T02:01:38;8.00;70.80
4840;DHT22;2434;48.486;7.964;2022-11-23T02:04:07;8.00;70.90
4840;DHT22;2434;48.486;7.964;2022-11-23T02:06:43;8.00;71.10
4840;DHT22;2434;48.486;7.964;2022-11-23T02:09:14;8.00;71.30
4840;DHT22;2434;48.486;7.964;2022-11-23T02:11:42;8.00;71.20
4840;DHT22;2434;48.486;7.964;2022-11-23T02:14:13;8.00;71.20
4840;DHT22;2434;48.486;7.964;2022-11-23T02:16:49;8.00;70.30
4840;DHT22;2434;48.486;7.964;2022-11-23T02:19:26;8.10;70.80
4840;DHT22;2434;48.486;7.964;2022-11-23T02:21:58;8.00;70.50
4840;DHT22;2434;48.486;7.964;2022-11-23T02:24:30;8.00;70.60
4840;DHT22;2434;48.486;7.964;2022-11-23T02:27:03;8.00;71.30
4840;DHT22;2434;48.486;7.964;2022-11-23T02:29:32;8.10;70.80
4840;DHT22;2434;48.486;7.964;2022-11-23T02:32:01;8.10;70.50
4840;DHT22;2434;48.486;7.964;2022-11-23T02:34:29;8.10;70.10
4840;DHT22;2434;48.486;7.964;2022-11-23T02:36:59;8.10;70.20
4840;DHT22;2434;48.486;7.964;2022-11-23T02:39:31;8.20;69.90
4840;DHT22;2434;48.486;7.964;2022-11-23T02:42:04;8.20;70.30
4840;DHT22;2434;48.486;7.964;2022-11-23T02:44:39;8.20;69.90
4840;DHT22;2434;48.486;7.964;2022-11-23T02:47:09;8.20;69.80
4840;DHT22;2434;48.486;7.964;2022-11-23T02:49:39;8.20;69.70
4840;DHT22;2434;48.486;7.964;2022-11-23T02:52:08;8.20;70.00
4840;DHT22;2434;48.486;7.964;2022-11-23T02:54:36;8.20;70.20
4840;DHT22;2434;48.486;7.964;2022-11-23T02:57:06;8.20;70.00
4840;DHT22;2434;48.486;7.964;2022-11-23T02:59:39;8.20;70.20
4840;DHT22;2434;48.486;7.964;2022-11-23T03:02:07;8.10;70.60
4840;DHT22;2434;48.486;7.964;2022-11-23T03:04:36;8.10;70.50
4840;DHT22;2434;48.486;7.964;2022-11-23T03:07:04;8.10;70.50
4840;DHT22;2434;48.486;7.964;2022-11-23T03:09:33;8.00;70.70
4840;DHT22;2434;48.486;7.964;2022-11-23T03:12:01;8.00;70.50
4840;DHT22;2434;48.486;7.964;2022-11-23T03:14:31;8.00;70.80
4840;DHT22;2434;48.486;7.964;2022-11-23T03:17:00;8.10;70.50
4840;DHT22;2434;48.486;7.964;2022-11-23T03:19:34;8.10;71.30
4840;DHT22;2434;48.486;7.964;2022-11-23T03:22:02;8.00;70.10
4840;DHT22;2434;48.486;7.964;2022-11-23T03:24:30;8.00;70.50
4840;DHT22;2434;48.486;7.964;2022-11-23T03:27:02;8.00;70.30
4840;DHT22;2434;48.486;7.964;2022-11-23T03:29:33;8.00;70.00
4840;DHT22;2434;48.486;7.964;2022-11-23T03:32:09;8.00;70.10
4840;DHT22;2434;48.486;7.964;2022-11-23T03:34:39;8.00;70.10
4840;DHT22;2434;48.486;7.964;2022-11-23T03:37:07;8.00;70.10
4840;DHT22;2434;48.486;7.964;2022-11-23T03:39:36;8.00;70.60
4840;DHT22;2434;48.486;7.964;2022-11-23T03:42:30;8.00;70.70
4840;DHT22;2434;48.486;7.964;2022-11-23T03:44:59;8.10;70.50
4840;DHT22;2434;48.486;7.964;2022-11-23T03:47:28;8.10;70.30
4840;DHT22;2434;48.486;7.964;2022-11-23T03:49:56;8.10;69.50
4840;DHT22;2434;48.486;7.964;2022-11-23T03:52:26;8.10;69.60
4840;DHT22;2434;48.486;7.964;2022-11-23T03:54:54;8.00;69.50
4840;DHT22;2434;48.486;7.964;2022-11-23T03:57:22;8.00;69.60
4840;DHT22;2434;48.486;7.964;2022-11-23T03:59:51;8.00;69.70
4840;DHT22;2434;48.486;7.964;2022-11-23T04:02:20;7.90;70.00
4840;DHT22;2434;48.486;7.964;2022-11-23T04:04:59;7.90;69.70
4840;DHT22;2434;48.486;7.964;2022-11-23T04:07:49;7.90;69.80
4840;DHT22;2434;48.486;7.964;2022-11-23T04:10:18;7.90;70.00
4840;DHT22;2434;48.486;7.964;2022-11-23T04:13:09;7.80;70.20
4840;DHT22;2434;48.486;7.964;2022-11-23T04:15:37;7.80;70.30
4840;DHT22;2434;48.486;7.964;2022-11-23T04:18:08;7.70;70.30
4840;DHT22;2434;48.486;7.964;2022-11-23T04:20:38;7.70;70.30
4840;DHT22;2434;48.486;7.964;2022-11-23T04:23:06;7.70;70.80
4840;DHT22;2434;48.486;7.964;2022-11-23T04:25:40;7.70;71.00
4840;DHT22;2434;48.486;7.964;2022-11-23T04:28:09;7.70;70.80
4840;DHT22;2434;48.486;7.964;2022-11-23T04:30:37;7.70;70.60
4840;DHT22;2434;48.486;7.964;2022-11-23T04:33:07;7.70;70.50
4840;DHT22;2434;48.486;7.964;2022-11-23T04:35:37;7.70;70.70
4840;DHT22;2434;48.486;7.964;2022-11-23T04:38:06;7.70;70.70
4840;DHT22;2434;48.486;7.964;2022-11-23T04:40:36;7.70;70.50
4840;DHT22;2434;48.486;7.964;2022-11-23T04:43:06;7.70;70.70
4840;DHT22;2434;48.486;7.964;2022-11-23T04:45:38;7.70;70.80
4840;DHT22;2434;48.486;7.964;2022-11-23T04:48:14;7.70;70.70
4840;DHT22;2434;48.486;7.964;2022-11-23T04:50:43;7.80;70.50
4840;DHT22;2434;48.486;7.964;2022-11-23T04:53:18;7.70;70.80
4840;DHT22;2434;48.486;7.964;2022-11-23T04:55:48;7.80;71.50
4840;DHT22;2434;48.486;7.964;2022-11-23T04:58:16;7.80;71.30
4840;DHT22;2434;48.486;7.964;2022-11-23T05:00:49;7.80;70.70
4840;DHT22;2434;48.486;7.964;2022-11-23T05:03:19;7.80;70.40
4840;DHT22;2434;48.486;7.964;2022-11-23T05:05:48;7.80;70.40
4840;DHT22;2434;48.486;7.964;2022-11-23T05:08:16;7.80;70.50
4840;DHT22;2434;48.486;7.964;2022-11-23T05:11:14;7.80;70.10
4840;DHT22;2434;48.486;7.964;2022-11-23T05:13:44;7.90;70.10
4840;DHT22;2434;48.486;7.964;2022-11-23T05:16:12;7.90;70.20
4840;DHT22;2434;48.486;7.964;2022-11-23T05:18:44;7.90;70.30
4840;DHT22;2434;48.486;7.964;2022-11-23T05:21:12;7.90;70.10
4840;DHT22;2434;48.486;7.964;2022-11-23T05:23:41;7.90;70.10
4840;DHT22;2434;48.486;7.964;2022-11-23T05:26:10;7.90;69.80
4840;DHT22;2434;48.486;7.964;2022-11-23T05:28:38;7.90;70.50
4840;DHT22;2434;48.486;7.964;2022-11-23T05:31:12;7.90;69.90
4840;DHT22;2434;48.486;7.964;2022-11-23T05:33:44;7.90;69.90
4840;DHT22;2434;48.486;7.964;2022-11-23T05:36:15;7.90;69.70
4840;DHT22;2434;48.486;7.964;2022-11-23T05:38:43;7.90;69.30
4840;DHT22;2434;48.486;7.964;2022-11-23T05:41:18;7.90;69.60
4840;DHT22;2434;48.486;7.964;2022-11-23T05:43:50;7.90;69.40
4840;DHT22;2434;48.486;7.964;2022-11-23T05:46:25;7.90;69.40
4840;DHT22;2434;48.486;7.964;2022-11-23T05:48:55;7.90;69.30
4840;DHT22;2434;48.486;7.964;2022-11-23T05:51:25;7.80;69.50
4840;DHT22;2434;48.486;7.964;2022-11-23T05:53:53;7.90;69.50
4840;DHT22;2434;48.486;7.964;2022-11-23T05:56:49;7.90;69.40
4840;DHT22;2434;48.486;7.964;2022-11-23T05:59:22;7.90;69.20
4840;DHT22;2434;48.486;7.964;2022-11-23T06:01:56;7.80;69.10
4840;DHT22;2434;48.486;7.964;2022-11-23T06:04:30;7.80;69.50
4840;DHT22;2434;48.486;7.964;2022-11-23T06:06:59;7.70;69.50
4840;DHT22;2434;48.486;7.964;2022-11-23T06:09:43;7.70;69.70
4840;DHT22;2434;48.486;7.964;2022-11-23T06:12:11;7.70;69.80
4840;DHT22;2434;48.486;7.964;2022-11-23T06:14:39;7.60;70.00
4840;DHT22;2434;48.486;7.964;2022-11-23T06:17:08;7.60;70.50
4840;DHT22;2434;48.486;7.964;2022-11-23T06:19:47;7.60;70.50
4840;DHT22;2434;48.486;7.964;2022-11-23T06:22:16;7.50;70.40
4840;DHT22;2434;48.486;7.964;2022-11-23T06:24:59;7.50;70.00
4840;DHT22;2434;48.486;7.964;2022-11-23T06:27:39;7.50;70.70
4840;DHT22;2434;48.486;7.964;2022-11-23T06:30:16;7.40;70.30
4840;DHT22;2434;48.486;7.964;2022-11-23T06:32:46;7.40;70.60
4840;DHT22;2434;48.486;7.964;2022-11-23T06:35:17;7.30;71.00
4840;DHT22;2434;48.486;7.964;2022-11-23T06:37:47;7.30;71.10
4840;DHT22;2434;48.486;7.964;2022-11-23T06:40:15;7.20;71.10
4840;DHT22;2434;48.486;7.964;2022-11-23T06:42:44;7.20;71.40
4840;DHT22;2434;48.486;7.964;2022-11-23T06:45:19;7.20;71.40
4840;DHT22;2434;48.486;7.964;2022-11-23T06:47:53;7.20;71.50
4840;DHT22;2434;48.486;7.964;2022-11-23T06:50:23;7.20;71.50
4840;DHT22;2434;48.486;7.964;2022-11-23T06:52:54;7.30;71.00
4840;DHT22;2434;48.486;7.964;2022-11-23T06:55:34;7.30;71.20
4840;DHT22;2434;48.486;7.964;2022-11-23T06:58:04;7.30;71.50
4840;DHT22;2434;48.486;7.964;2022-11-23T07:00:33;7.30;71.40
4840;DHT22;2434;48.486;7.964;2022-11-23T07:03:02;7.30;70.90
4840;DHT22;2434;48.486;7.964;2022-11-23T07:05:40;7.30;71.10
4840;DHT22;2434;48.486;7.964;2022-11-23T07:08:08;7.30;71.80
4840;DHT22;2434;48.486;7.964;2022-11-23T07:10:38;7.30;71.10
4840;DHT22;2434;48.486;7.964;2022-11-23T07:13:09;7.30;71.00
4840;DHT22;2434;48.486;7.964;2022-11-23T07:15:40;7.30;71.40
4840;DHT22;2434;48.486;7.964;2022-11-23T07:18:11;7.30;70.90
4840;DHT22;2434;48.486;7.964;2022-11-23T07:20:47;7.20;71.70
4840;DHT22;2434;48.486;7.964;2022-11-23T07:23:16;7.20;71.00
4840;DHT22;2434;48.486;7.964;2022-11-23T07:25:44;7.20;71.20
4840;DHT22;2434;48.486;7.964;2022-11-23T07:28:13;7.20;71.50
4840;DHT22;2434;48.486;7.964;2022-11-23T07:30:42;7.20;71.70
4840;DHT22;2434;48.486;7.964;2022-11-23T07:33:12;7.10;72.80
4840;DHT22;2434;48.486;7.964;2022-11-23T07:35:41;7.20;72.20
4840;DHT22;2434;48.486;7.964;2022-11-23T07:38:11;7.20;71.80
4840;DHT22;2434;48.486;7.964;2022-11-23T07:40:42;7.20;71.90
4840;DHT22;2434;48.486;7.964;2022-11-23T07:43:22;7.20;72.40
4840;DHT22;2434;48.486;7.964;2022-11-23T07:45:54;7.20;73.10
4840;DHT22;2434;48.486;7.964;2022-11-23T07:48:22;7.20;71.80
4840;DHT22;2434;48.486;7.964;2022-11-23T07:50:51;7.20;72.10
4840;DHT22;2434;48.486;7.964;2022-11-23T07:53:21;7.30;71.90
4840;DHT22;2434;48.486;7.964;2022-11-23T07:55:54;7.20;71.70
4840;DHT22;2434;48.486;7.964;2022-11-23T07:58:24;7.30;72.10
4840;DHT22;2434;48.486;7.964;2022-11-23T08:00:52;7.30;72.40
4840;DHT22;2434;48.486;7.964;2022-11-23T08:03:20;7.30;72.50
4840;DHT22;2434;48.486;7.964;2022-11-23T08:05:54;7.20;72.90
4840;DHT22;2434;48.486;7.964;2022-11-23T08:08:24;7.20;73.00
4840;DHT22;2434;48.486;7.964;2022-11-23T08:10:52;7.20;73.30
4840;DHT22;2434;48.486;7.964;2022-11-23T08:13:21;7.30;72.70
4840;DHT22;2434;48.486;7.964;2022-11-23T08:15:50;7.30;73.20
4840;DHT22;2434;48.486;7.964;2022-11-23T08:18:22;7.30;72.90
4840;DHT22;2434;48.486;7.964;2022-11-23T08:20:50;7.40;73.40
4840;DHT22;2434;48.486;7.964;2022-11-23T08:23:19;7.40;72.60
4840;DHT22;2434;48.486;7.964;2022-11-23T08:25:49;7.40;72.40
4840;DHT22;2434;48.486;7.964;2022-11-23T08:28:18;7.40;72.50
4840;DHT22;2434;48.486;7.964;2022-11-23T08:30:47;7.40;72.40
4840;DHT22;2434;48.486;7.964;2022-11-23T08:33:16;7.50;71.90
4840;DHT22;2434;48.486;7.964;2022-11-23T08:35:45;7.50;73.00
4840;DHT22;2434;48.486;7.964;2022-11-23T08:38:14;7.50;72.20
4840;DHT22;2434;48.486;7.964;2022-11-23T08:40:43;7.60;71.50
4840;DHT22;2434;48.486;7.964;2022-11-23T08:43:12;7.70;72.20
4840;DHT22;2434;48.486;7.964;2022-11-23T08:45:40;7.70;70.70
4840;DHT22;2434;48.486;7.964;2022-11-23T08:48:08;7.80;71.00
4840;DHT22;2434;48.486;7.964;2022-11-23T08:50:37;7.80;70.80
4840;DHT22;2434;48.486;7.964;2022-11-23T08:53:05;7.80;71.10
4840;DHT22;2434;48.486;7.964;2022-11-23T08:55:33;7.80;71.20
4840;DHT22;2434;48.486;7.964;2022-11-23T08:58:01;8.00;70.90
4840;DHT22;2434;48.486;7.964;2022-11-23T09:00:37;8.00;70.80
4840;DHT22;2434;48.486;7.964;2022-11-23T09:03:06;8.10;70.30
4840;DHT22;2434;48.486;7.964;2022-11-23T09:05:36;8.10;70.30
4840;DHT22;2434;48.486;7.964;2022-11-23T09:08:05;8.30;69.60
4840;DHT22;2434;48.486;7.964;2022-11-23T09:10:35;8.30;69.10
4840;DHT22;2434;48.486;7.964;2022-11-23T09:13:03;8.30;68.00
4840;DHT22;2434;48.486;7.964;2022-11-23T09:15:32;8.20;67.50
4840;DHT22;2434;48.486;7.964;2022-11-23T09:18:02;8.20;68.60
4840;DHT22;2434;48.486;7.964;2022-11-23T09:20:31;8.20;68.60
4840;DHT22;2434;48.486;7.964;2022-11-23T09:22:59;8.20;68.40
4840;DHT22;2434;48.486;7.964;2022-11-23T09:25:28;8.20;67.70
4840;DHT22;2434;48.486;7.964;2022-11-23T09:27:56;8.20;68.50
4840;DHT22;2434;48.486;7.964;2022-11-23T09:30:26;8.20;67.90
4840;DHT22;2434;48.486;7.964;2022-11-23T09:32:55;8.10;67.90
4840;DHT22;2434;48.486;7.964;2022-11-23T09:35:25;8.10;67.60
4840;DHT22;2434;48.486;7.964;2022-11-23T09:37:55;8.20;68.20
4840;DHT22;2434;48.486;7.964;2022-11-23T09:40:25;8.20;67.30
4840;DHT22;2434;48.486;7.964;2022-11-23T09:43:03;8.20;67.90
4840;DHT22;2434;48.486;7.964;2022-11-23T09:45:38;8.20;67.80
4840;DHT22;2434;48.486;7.964;2022-11-23T09:48:27;8.30;67.20
4840;DHT22;2434;48.486;7.964;2022-11-23T09:51:05;8.30;67.10
4840;DHT22;2434;48.486;7.964;2022-11-23T09:53:43;8.40;67.50
4840;DHT22;2434;48.486;7.964;2022-11-23T09:56:16;8.40;67.20
4840;DHT22;2434;48.486;7.964;2022-11-23T09:58:46;8.40;67.00
4840;DHT22;2434;48.486;7.964;2022-11-23T10:01:16;8.50;67.00
4840;DHT22;2434;48.486;7.964;2022-11-23T10:03:44;8.50;67.40
4840;DHT22;2434;48.486;7.964;2022-11-23T10:06:19;8.50;67.80
4840;DHT22;2434;48.486;7.964;2022-11-23T10:09:00;8.60;68.20
4840;DHT22;2434;48.486;7.964;2022-11-23T10:11:55;8.60;68.60
4840;DHT22;2434;48.486;7.964;2022-11-23T10:14:38;8.60;68.50
4840;DHT22;2434;48.486;7.964;2022-11-23T10:17:17;8.60;67.10
4840;DHT22;2434;48.486;7.964;2022-11-23T10:20:06;8.70;66.90
4840;DHT22;2434;48.486;7.964;2022-11-23T10:22:45;8.80;65.60
4840;DHT22;2434;48.486;7.964;2022-11-23T10:25:16;8.80;65.90
4840;DHT22;2434;48.486;7.964;2022-11-23T10:27:47;8.90;65.80
4840;DHT22;2434;48.486;7.964;2022-11-23T10:30:17;9.00;65.10
4840;DHT22;2434;48.486;7.964;2022-11-23T10:32:50;8.90;64.10
4840;DHT22;2434;48.486;7.964;2022-11-23T10:35:24;9.00;64.40
4840;DHT22;2434;48.486;7.964;2022-11-23T10:38:08;9.10;65.70
4840;DHT22;2434;48.486;7.964;2022-11-23T10:40:53;9.00;65.30
4840;DHT22;2434;48.486;7.964;2022-11-23T10:43:25;9.10;67.10
4840;DHT22;2434;48.486;7.964;2022-11-23T10:46:25;9.30;65.60
4840;DHT22;2434;48.486;7.964;2022-11-23T10:48:54;9.30;62.50
4840;DHT22;2434;48.486;7.964;2022-11-23T10:51:27;9.50;63.20
4840;DHT22;2434;48.486;7.964;2022-11-23T10:53:58;9.70;59.50
4840;DHT22;2434;48.486;7.964;2022-11-23T10:56:32;9.90;57.10
4840;DHT22;2434;48.486;7.964;2022-11-23T10:59:01;10.00;58.70
4840;DHT22;2434;48.486;7.964;2022-11-23T11:01:31;10.00;59.40
4840;DHT22;2434;48.486;7.964;2022-11-23T11:04:02;10.00;58.90
4840;DHT22;2434;48.486;7.964;2022-11-23T11:06:32;10.10;56.00
4840;DHT22;2434;48.486;7.964;2022-11-23T11:09:03;10.20;56.20
4840;DHT22;2434;48.486;7.964;2022-11-23T11:11:44;10.30;55.60
4840;DHT22;2434;48.486;7.964;2022-11-23T11:14:16;10.30;54.30
4840;DHT22;2434;48.486;7.964;2022-11-23T11:16:48;10.50;54.90
4840;DHT22;2434;48.486;7.964;2022-11-23T11:19:25;10.60;52.50
4840;DHT22;2434;48.486;7.964;2022-11-23T11:21:55;10.80;52.90
4840;DHT22;2434;48.486;7.964;2022-11-23T11:24:29;11.00;50.70
4840;DHT22;2434;48.486;7.964;2022-11-23T11:27:01;11.10;48.70
4840;DHT22;2434;48.486;7.964;2022-11-23T11:29:31;11.20;48.90
4840;DHT22;2434;48.486;7.964;2022-11-23T11:32:10;11.40;45.50
4840;DHT22;2434;48.486;7.964;2022-11-23T11:34:43;11.50;45.90
4840;DHT22;2434;48.486;7.964;2022-11-23T11:37:17;11.60;41.50
4840;DHT22;2434;48.486;7.964;2022-11-23T11:39:51;11.70;44.40
4840;DHT22;2434;48.486;7.964;2022-11-23T11:42:29;11.80;42.60
4840;DHT22;2434;48.486;7.964;2022-11-23T11:45:00;11.80;41.90
4840;DHT22;2434;48.486;7.964;2022-11-23T11:47:36;12.00;43.80
4840;DHT22;2434;48.486;7.964;2022-11-23T11:50:17;12.10;41.90
4840;DHT22;2434;48.486;7.964;2022-11-23T11:52:54;12.20;40.70
4840;DHT22;2434;48.486;7.964;2022-11-23T11:55:28;12.10;41.00
4840;DHT22;2434;48.486;7.964;2022-11-23T11:58:03;12.20;41.40
4840;DHT22;2434;48.486;7.964;2022-11-23T12:00:33;12.40;40.00
4840;DHT22;2434;48.486;7.964;2022-11-23T12:03:18;12.40;42.00
4840;DHT22;2434;48.486;7.964;2022-11-23T12:05:54;12.50;40.80
4840;DHT22;2434;48.486;7.964;2022-11-23T12:08:34;12.60;40.30
4840;DHT22;2434;48.486;7.964;2022-11-23T12:11:04;12.70;39.90
4840;DHT22;2434;48.486;7.964;2022-11-23T12:13:36;12.70;39.40
4840;DHT22;2434;48.486;7.964;2022-11-23T12:16:09;12.70;42.80
4840;DHT22;2434;48.486;7.964;2022-11-23T12:19:04;12.50;42.40
4840;DHT22;2434;48.486;7.964;2022-11-23T12:22:04;11.90;44.90
4840;DHT22;2434;48.486;7.964;2022-11-23T12:24:56;11.80;47.70
4840;DHT22;2434;48.486;7.964;2022-11-23T12:27:36;12.00;47.10
4840;DHT22;2434;48.486;7.964;2022-11-23T12:30:21;11.80;49.80
4840;DHT22;2434;48.486;7.964;2022-11-23T12:33:17;11.90;51.50
4840;DHT22;2434;48.486;7.964;2022-11-23T12:35:58;11.20;54.20
4840;DHT22;2434;48.486;7.964;2022-11-23T12:38:30;11.30;55.20
4840;DHT22;2434;48.486;7.964;2022-11-23T12:41:13;11.50;52.00
4840;DHT22;2434;48.486;7.964;2022-11-23T12:43:53;11.80;52.40
4840;DHT22;2434;48.486;7.964;2022-11-23T12:46:32;12.10;51.90
4840;DHT22;2434;48.486;7.964;2022-11-23T12:49:15;12.00;51.10
4840;DHT22;2434;48.486;7.964;2022-11-23T12:51:56;11.00;55.60
4840;DHT22;2434;48.486;7.964;2022-11-23T12:54:41;11.40;56.80
4840;DHT22;2434;48.486;7.964;2022-11-23T12:57:14;11.70;52.30
4840;DHT22;2434;48.486;7.964;2022-11-23T12:59:49;12.10;53.60
4840;DHT22;2434;48.486;7.964;2022-11-23T13:05:47;11.80;50.10
4840;DHT22;2434;48.486;7.964;2022-11-23T13:08:39;12.20;50.30
4840;DHT22;2434;48.486;7.964;2022-11-23T13:11:23;12.40;49.00
4840;DHT22;2434;48.486;7.964;2022-11-23T13:14:05;12.60;49.40
4840;DHT22;2434;48.486;7.964;2022-11-23T13:17:00;12.40;47.90
4840;DHT22;2434;48.486;7.964;2022-11-23T13:19:48;12.10;48.20
4840;DHT22;2434;48.486;7.964;2022-11-23T13:22:20;12.50;49.10
4840;DHT22;2434;48.486;7.964;2022-11-23T13:25:18;12.40;46.00
4840;DHT22;2434;48.486;7.964;2022-11-23T13:28:04;12.00;48.90
4840;DHT22;2434;48.486;7.964;2022-11-23T13:31:18;12.10;48.70
4840;DHT22;2434;48.486;7.964;2022-11-23T13:33:48;12.40;47.90
4840;DHT22;2434;48.486;7.964;2022-11-23T13:40:03;12.30;47.50
4840;DHT22;2434;48.486;7.964;2022-11-23T13:42:33;12.00;46.90
4840;DHT22;2434;48.486;7.964;2022-11-23T13:45:24;12.30;46.90
4840;DHT22;2434;48.486;7.964;2022-11-23T13:48:15;12.40;45.80
4840;DHT22;2434;48.486;7.964;2022-11-23T13:51:05;12.60;48.10
4840;DHT22;2434;48.486;7.964;2022-11-23T13:53:35;12.50;48.30
4840;DHT22;2434;48.486;7.964;2022-11-23T13:56:23;12.70;47.30
4840;DHT22;2434;48.486;7.964;2022-11-23T13:58:55;12.80;46.70
4840;DHT22;2434;48.486;7.964;2022-11-23T14:01:56;12.80;47.20
4840;DHT22;2434;48.486;7.964;2022-11-23T14:04:25;12.70;45.50
4840;DHT22;2434;48.486;7.964;2022-11-23T14:06:56;12.70;45.60
4840;DHT22;2434;48.486;7.964;2022-11-23T14:09:32;12.80;46.60
4840;DHT22;2434;48.486;7.964;2022-11-23T14:12:07;12.70;47.20
4840;DHT22;2434;48.486;7.964;2022-11-23T14:14:53;12.30;44.80
4840;DHT22;2434;48.486;7.964;2022-11-23T14:20:39;12.20;41.10
4840;DHT22;2434;48.486;7.964;2022-11-23T14:23:23;12.20;42.30
4840;DHT22;2434;48.486;7.964;2022-11-23T14:26:03;12.20;40.40
4840;DHT22;2434;48.486;7.964;2022-11-23T14:28:48;12.20;40.70
4840;DHT22;2434;48.486;7.964;2022-11-23T14:31:30;12.10;39.90
4840;DHT22;2434;48.486;7.964;2022-11-23T14:34:09;12.20;41.10
4840;DHT22;2434;48.486;7.964;2022-11-23T14:36:47;12.10;40.90
4840;DHT22;2434;48.486;7.964;2022-11-23T14:42:25;12.00;41.00
4840;DHT22;2434;48.486;7.964;2022-11-23T14:44:56;12.00;39.60
4840;DHT22;2434;48.486;7.964;2022-11-23T14:47:30;12.00;38.30
4840;DHT22;2434;48.486;7.964;2022-11-23T14:49:59;11.90;39.00
4840;DHT22;2434;48.486;7.964;2022-11-23T14:52:28;11.80;39.00
4840;DHT22;2434;48.486;7.964;2022-11-23T14:55:00;11.70;40.10
4840;DHT22;2434;48.486;7.964;2022-11-23T14:57:39;11.80;40.50
4840;DHT22;2434;48.486;7.964;2022-11-23T15:00:23;11.70;40.80
4840;DHT22;2434;48.486;7.964;2022-11-23T15:02:55;11.70;40.30
4840;DHT22;2434;48.486;7.964;2022-11-23T15:05:28;11.70;41.10
4840;DHT22;2434;48.486;7.964;2022-11-23T15:08:00;11.70;41.50
4840;DHT22;2434;48.486;7.964;2022-11-23T15:10:37;11.60;42.40
4840;DHT22;2434;48.486;7.964;2022-11-23T15:13:20;11.50;43.20
4840;DHT22;2434;48.486;7.964;2022-11-23T15:15:50;11.40;44.30
4840;DHT22;2434;48.486;7.964;2022-11-23T15:18:28;11.50;45.80
4840;DHT22;2434;48.486;7.964;2022-11-23T15:20:59;11.60;46.10
4840;DHT22;2434;48.486;7.964;2022-11-23T15:23:32;11.70;44.80
4840;DHT22;2434;48.486;7.964;2022-11-23T15:26:04;11.50;44.70
4840;DHT22;2434;48.486;7.964;2022-11-23T15:28:34;11.40;45.00
4840;DHT22;2434;48.486;7.964;2022-11-23T15:31:26;11.30;46.00
4840;DHT22;2434;48.486;7.964;2022-11-23T15:33:58;11.40;46.90
4840;DHT22;2434;48.486;7.964;2022-11-23T15:36:31;11.20;49.50
4840;DHT22;2434;48.486;7.964;2022-11-23T15:39:01;11.20;51.20
4840;DHT22;2434;48.486;7.964;2022-11-23T15:41:34;11.30;51.80
4840;DHT22;2434;48.486;7.964;2022-11-23T15:44:14;11.30;53.30
4840;DHT22;2434;48.486;7.964;2022-11-23T15:46:46;11.30;54.10
4840;DHT22;2434;48.486;7.964;2022-11-23T15:49:17;11.00;56.00
4840;DHT22;2434;48.486;7.964;2022-11-23T15:51:47;10.70;58.90
4840;DHT22;2434;48.486;7.964;2022-11-23T15:54:19;10.70;61.30
4840;DHT22;2434;48.486;7.964;2022-11-23T15:56:49;10.40;65.50
4840;DHT22;2434;48.486;7.964;2022-11-23T15:59:29;10.30;65.00
4840;DHT22;2434;48.486;7.964;2022-11-23T16:01:59;10.10;66.60
4840;DHT22;2434;48.486;7.964;2022-11-23T16:04:34;10.30;65.90
4840;DHT22;2434;48.486;7.964;2022-11-23T16:07:15;10.40;64.30
4840;DHT22;2434;48.486;7.964;2022-11-23T16:09:45;10.50;65.10
4840;DHT22;2434;48.486;7.964;2022-11-23T16:12:26;10.70;64.30
4840;DHT22;2434;48.486;7.964;2022-11-23T16:14:56;10.70;63.30
4840;DHT22;2434;48.486;7.964;2022-11-23T16:17:27;10.70;63.40
4840;DHT22;2434;48.486;7.964;2022-11-23T16:20:01;10.80;63.90
4840;DHT22;2434;48.486;7.964;2022-11-23T16:22:32;10.80;64.60
4840;DHT22;2434;48.486;7.964;2022-11-23T16:25:05;10.60;65.60
4840;DHT22;2434;48.486;7.964;2022-11-23T16:27:34;10.50;66.20
4840;DHT22;2434;48.486;7.964;2022-11-23T16:30:04;10.40;67.40
4840;DHT22;2434;48.486;7.964;2022-11-23T16:32:32;10.20;68.80
4840;DHT22;2434;48.486;7.964;2022-11-23T16:35:14;10.00;70.90
4840;DHT22;2434;48.486;7.964;2022-11-23T16:38:04;9.90;72.50
4840;DHT22;2434;48.486;7.964;2022-11-23T16:40:32;9.80;73.40
4840;DHT22;2434;48.486;7.964;2022-11-23T16:43:01;9.80;73.20
4840;DHT22;2434;48.486;7.964;2022-11-23T16:45:30;9.70;72.60
4840;DHT22;2434;48.486;7.964;2022-11-23T16:48:01;9.80;71.00
4840;DHT22;2434;48.486;7.964;2022-11-23T16:50:33;9.70;72.30
4840;DHT22;2434;48.486;7.964;2022-11-23T16:53:10;9.70;71.50
4840;DHT22;2434;48.486;7.964;2022-11-23T16:55:39;9.60;71.50
4840;DHT22;2434;48.486;7.964;2022-11-23T16:58:12;9.60;71.70
4840;DHT22;2434;48.486;7.964;2022-11-23T17:00:41;9.50;71.90
4840;DHT22;2434;48.486;7.964;2022-11-23T17:03:11;9.40;73.20
4840;DHT22;2434;48.486;7.964;2022-11-23T17:05:41;9.40;72.10